< < Back
Terminal Aerodrome Forecast


Current Version              Previous Versions:   1  2  3  4  5  6  7  8  9  

Terminal Aerodrome Forecast

309
FTUS44 KOHX 301600 AAB
TAFCSV
TAF AMD
KCSV 301649Z 3017/3112 35012G19KT P6SM BKN027 BKN030
     FM301800 36010G17KT P6SM BKN025
     FM302100 35010KT P6SM SCT045
     FM310100 04003KT P6SM SCT250=

Latest METAR

185
SAUS70 KWBC 301700 RRD
MTRCSV
METAR KCSV 301653Z AUTO 33009KT 10SM OVC029 02/M06 A3038 RMK AO2 SLP299
T00221061


USA.gov is the U.S. government's official web portal to all federal, state and local government web resources and services.